Climatologie pour Saint-Brevin les Pins
Jour • Résumé pour juin 20, 2017 Système :  Métrique    Anglais   Mixte
« - 1 jour
+ 1 jour »
Jour Semaine Mois Année Personnalisé
  Maximum : Minimum : Moyenne :
Température sous abri : 28.2 °C 18.0 °C 22.3 °C
Point de rosée : 22.0 °C 17.1 °C 19.3 °C
Humidité : 98 % 59 % 85 %
Vitesse du vent : 16.1 km/h 0.0 km/h 3.5 km/h
Rafale : 25.7 km/h - -
Direction :- - WSW
Pression : 1015.1 hPa 1012.8 hPa -
Précipitations : 0.0 mm    
Historical Graphs
 
 
Tableau de données pour juin 20, 2017
Heure Tempé Pt rosée Pression Vent Vitesse Rafale Humidité Taux pluie (/hr) Soleil
00:00 20.8 °C 18.8 °C 1014.1 hPa Calm     88 % 0.0 mm 0 W/m2
00:05 20.4 °C 18.6 °C 1014.1 hPa Calm     89 % 0.0 mm 0 W/m2
00:10 20.2 °C 18.3 °C 1014.1 hPa Calm     89 % 0.0 mm 0 W/m2
00:15 20.1 °C 18.4 °C 1014.1 hPa Calm     90 % 0.0 mm 0 W/m2
00:20 20.1 °C 18.4 °C 1014.1 hPa Calm     90 % 0.0 mm 0 W/m2
00:25 20.2 °C 18.7 °C 1014.1 hPa Calm     91 % 0.0 mm 0 W/m2
00:30 20.2 °C 18.5 °C 1014.1 hPa Calm     90 % 0.0 mm 0 W/m2
00:35 20.1 °C 18.4 °C 1014.1 hPa Calm     90 % 0.0 mm 0 W/m2
00:40 20.2 °C 18.5 °C 1013.8 hPa Calm     90 % 0.0 mm 0 W/m2
00:45 20.5 °C 18.8 °C 1013.8 hPa Calm     90 % 0.0 mm 0 W/m2
00:50 20.2 °C 18.5 °C 1013.8 hPa Calm     90 % 0.0 mm 0 W/m2
00:55 19.9 °C 18.3 °C 1013.8 hPa Calm     90 % 0.0 mm 0 W/m2
01:00 19.8 °C 18.3 °C 1013.8 hPa Calm     91 % 0.0 mm 0 W/m2
01:05 19.7 °C 18.4 °C 1013.8 hPa Calm     92 % 0.0 mm 0 W/m2
01:10 20.1 °C 18.8 °C 1013.8 hPa Calm   1.6 km/h 92 % 0.0 mm 0 W/m2
01:15 20.3 °C 18.8 °C 1013.8 hPa Calm   1.6 km/h 91 % 0.0 mm 0 W/m2
01:20 20.2 °C 18.5 °C 1013.4 hPa Calm   1.6 km/h 90 % 0.0 mm 0 W/m2
01:25 20.2 °C 18.5 °C 1013.4 hPa Calm   1.6 km/h 90 % 0.0 mm 0 W/m2
01:30 20.3 °C 18.6 °C 1013.4 hPa Calm   1.6 km/h 90 % 0.0 mm 0 W/m2
01:35 20.2 °C 18.5 °C 1013.4 hPa Calm     90 % 0.0 mm 0 W/m2
01:40 19.9 °C 18.2 °C 1013.8 hPa Calm   1.6 km/h 90 % 0.0 mm 0 W/m2
01:45 19.9 °C 18.2 °C 1013.8 hPa Calm   1.6 km/h 90 % 0.0 mm 0 W/m2
01:50 19.6 °C 18.1 °C 1013.8 hPa Calm     91 % 0.0 mm 0 W/m2
01:55 19.3 °C 17.8 °C 1013.8 hPa Calm     91 % 0.0 mm 0 W/m2
02:00 19.2 °C 18.0 °C 1013.8 hPa Calm     93 % 0.0 mm 0 W/m2
02:05 19.1 °C 17.9 °C 1013.8 hPa Calm     93 % 0.0 mm 0 W/m2
02:10 19.0 °C 17.8 °C 1013.8 hPa Calm     93 % 0.0 mm 0 W/m2
02:15 18.9 °C 17.8 °C 1013.4 hPa Calm     93 % 0.0 mm 0 W/m2
02:20 18.8 °C 17.8 °C 1013.8 hPa Calm     94 % 0.0 mm 0 W/m2
02:25 18.8 °C 17.6 °C 1013.4 hPa Calm     93 % 0.0 mm 0 W/m2
02:30 18.8 °C 17.8 °C 1013.4 hPa Calm     94 % 0.0 mm 0 W/m2
02:35 18.6 °C 17.6 °C 1013.4 hPa Calm     94 % 0.0 mm 0 W/m2
02:40 18.6 °C 17.6 °C 1013.4 hPa Calm     94 % 0.0 mm 0 W/m2
02:45 18.7 °C 17.7 °C 1013.4 hPa Calm     94 % 0.0 mm 0 W/m2
02:50 18.8 °C 18.0 °C 1013.4 hPa Calm     95 % 0.0 mm 0 W/m2
02:55 18.7 °C 17.8 °C 1013.1 hPa Calm     95 % 0.0 mm 0 W/m2
03:00 18.6 °C 17.7 °C 1013.1 hPa Calm     95 % 0.0 mm 0 W/m2
03:05 18.3 °C 17.5 °C 1013.1 hPa Calm     95 % 0.0 mm 0 W/m2
03:10 18.1 °C 17.1 °C 1013.1 hPa Calm     94 % 0.0 mm 0 W/m2
03:15 18.0 °C 17.2 °C 1013.1 hPa Calm     95 % 0.0 mm 0 W/m2
03:20 18.1 °C 17.3 °C 1013.1 hPa Calm     95 % 0.0 mm 0 W/m2
03:25 18.3 °C 17.5 °C 1013.1 hPa Calm   1.6 km/h 95 % 0.0 mm 0 W/m2
03:30 18.4 °C 17.6 °C 1013.1 hPa Calm   1.6 km/h 95 % 0.0 mm 0 W/m2
03:35 18.3 °C 17.5 °C 1013.1 hPa Calm     95 % 0.0 mm 0 W/m2
03:40 18.2 °C 17.4 °C 1013.1 hPa Calm     95 % 0.0 mm 0 W/m2
03:45 18.2 °C 17.4 °C 1013.1 hPa Calm     95 % 0.0 mm 0 W/m2
03:50 18.2 °C 17.6 °C 1013.1 hPa Calm     96 % 0.0 mm 0 W/m2
03:55 18.3 °C 17.6 °C 1013.1 hPa Calm     96 % 0.0 mm 0 W/m2
04:00 18.3 °C 17.7 °C 1012.8 hPa Calm     96 % 0.0 mm 0 W/m2
04:05 18.5 °C 17.9 °C 1012.8 hPa Calm     96 % 0.0 mm 0 W/m2
04:15 18.6 °C 17.9 °C 1012.8 hPa Calm     96 % 0.0 mm 0 W/m2
04:20 18.7 °C 18.1 °C 1013.1 hPa Calm     96 % 0.0 mm 0 W/m2
04:25 18.4 °C 17.6 °C 1013.1 hPa Calm     95 % 0.0 mm 0 W/m2
04:30 18.4 °C 17.8 °C 1013.1 hPa Calm     96 % 0.0 mm 0 W/m2
04:35 18.4 °C 17.8 °C 1013.1 hPa Calm     96 % 0.0 mm 0 W/m2
04:40 18.8 °C 18.1 °C 1013.1 hPa Calm     96 % 0.0 mm 0 W/m2
04:45 18.7 °C 18.1 °C 1013.1 hPa Calm     96 % 0.0 mm 0 W/m2
04:50 18.6 °C 17.9 °C 1013.1 hPa Calm     96 % 0.0 mm 0 W/m2
04:55 18.5 °C 17.7 °C 1013.1 hPa Calm     95 % 0.0 mm 0 W/m2
05:00 18.4 °C 17.8 °C 1013.1 hPa Calm     96 % 0.0 mm 0 W/m2
05:05 18.3 °C 17.7 °C 1013.1 hPa Calm     96 % 0.0 mm 0 W/m2
05:10 18.3 °C 17.6 °C 1013.1 hPa Calm     96 % 0.0 mm 0 W/m2
05:15 18.3 °C 17.6 °C 1013.1 hPa Calm     96 % 0.0 mm 0 W/m2
05:20 18.2 °C 17.5 °C 1013.1 hPa Calm     96 % 0.0 mm 0 W/m2
05:25 18.1 °C 17.4 °C 1013.1 hPa Calm     96 % 0.0 mm 0 W/m2
05:30 18.1 °C 17.4 °C 1013.1 hPa Calm     96 % 0.0 mm 0 W/m2
05:35 18.2 °C 17.7 °C 1013.4 hPa Calm     97 % 0.0 mm 0 W/m2
05:40 18.4 °C 17.7 °C 1013.4 hPa Calm     96 % 0.0 mm 0 W/m2
05:45 18.3 °C 17.7 °C 1013.4 hPa Calm     96 % 0.0 mm 0 W/m2
05:50 18.3 °C 17.6 °C 1013.4 hPa Calm     96 % 0.0 mm 0 W/m2
05:55 18.2 °C 17.6 °C 1013.4 hPa Calm     96 % 0.0 mm 0 W/m2
06:00 18.2 °C 17.5 °C 1013.4 hPa Calm     96 % 0.0 mm 0 W/m2
06:05 18.3 °C 17.6 °C 1013.4 hPa Calm     96 % 0.0 mm 0 W/m2
06:10 18.3 °C 17.6 °C 1013.4 hPa Calm     96 % 0.0 mm 0 W/m2
06:15 18.3 °C 17.6 °C 1013.4 hPa Calm     96 % 0.0 mm 0 W/m2
06:20 18.5 °C 18.0 °C 1013.4 hPa Calm     97 % 0.0 mm 5 W/m2
06:25 18.3 °C 17.7 °C 1013.4 hPa Calm     96 % 0.0 mm 9 W/m2
06:30 18.3 °C 17.6 °C 1013.4 hPa Calm     96 % 0.0 mm 12 W/m2
06:35 18.2 °C 17.7 °C 1013.4 hPa Calm     97 % 0.0 mm 16 W/m2
06:40 18.3 °C 17.8 °C 1013.4 hPa Calm   1.6 km/h 97 % 0.0 mm 19 W/m2
06:45 18.6 °C 18.1 °C 1013.4 hPa Calm   3.2 km/h 97 % 0.0 mm 19 W/m2
06:50 18.7 °C 18.2 °C 1013.4 hPa Calm   3.2 km/h 97 % 0.0 mm 23 W/m2
06:55 18.7 °C 18.2 °C 1013.4 hPa Calm   1.6 km/h 97 % 0.0 mm 26 W/m2
07:00 18.7 °C 18.2 °C 1013.4 hPa Calm   1.6 km/h 97 % 0.0 mm 32 W/m2
07:05 18.7 °C 18.2 °C 1013.4 hPa Calm   1.6 km/h 97 % 0.0 mm 33 W/m2
07:10 18.8 °C 18.3 °C 1013.4 hPa Calm   3.2 km/h 97 % 0.0 mm 37 W/m2
07:15 18.9 °C 18.4 °C 1013.4 hPa Calm   3.2 km/h 97 % 0.0 mm 42 W/m2
07:20 19.1 °C 18.6 °C 1013.8 hPa Calm   6.4 km/h 97 % 0.0 mm 46 W/m2
07:25 19.3 °C 18.8 °C 1013.8 hPa Calm   6.4 km/h 97 % 0.0 mm 46 W/m2
07:30 19.9 °C 19.6 °C 1013.8 hPa Calm   6.4 km/h 98 % 0.0 mm 60 W/m2
07:35 20.2 °C 19.7 °C 1013.8 hPa SW 1.6 km/h 6.4 km/h 97 % 0.0 mm 69 W/m2
07:40 20.4 °C 19.8 °C 1013.8 hPa Calm   6.4 km/h 96 % 0.0 mm 77 W/m2
07:45 20.6 °C 20.0 °C 1013.8 hPa Calm   4.8 km/h 96 % 0.0 mm 88 W/m2
07:50 20.8 °C 20.0 °C 1013.8 hPa Calm   4.8 km/h 95 % 0.0 mm 179 W/m2
07:55 21.1 °C 20.2 °C 1013.8 hPa Calm   3.2 km/h 95 % 0.0 mm 216 W/m2
08:00 21.4 °C 20.4 °C 1013.8 hPa Calm   3.2 km/h 94 % 0.0 mm 227 W/m2
08:05 21.7 °C 20.5 °C 1013.8 hPa Calm   3.2 km/h 93 % 0.0 mm 237 W/m2
08:10 21.9 °C 20.4 °C 1013.8 hPa SW 1.6 km/h 3.2 km/h 91 % 0.0 mm 188 W/m2
08:15 22.0 °C 20.3 °C 1013.8 hPa Calm   3.2 km/h 90 % 0.0 mm 158 W/m2
08:20 22.1 °C 20.3 °C 1013.8 hPa Calm   3.2 km/h 90 % 0.0 mm 174 W/m2
08:25 22.2 °C 20.5 °C 1013.8 hPa Calm     90 % 0.0 mm 199 W/m2
08:30 22.4 °C 20.7 °C 1013.8 hPa Calm     90 % 0.0 mm 209 W/m2
08:35 22.4 °C 20.7 °C 1013.8 hPa Calm     90 % 0.0 mm 295 W/m2
08:40 22.8 °C 21.3 °C 1013.8 hPa Calm     91 % 0.0 mm 330 W/m2
08:45 23.3 °C 21.4 °C 1013.8 hPa Calm   4.8 km/h 89 % 0.0 mm 334 W/m2
08:50 23.8 °C 21.5 °C 1013.8 hPa Calm   4.8 km/h 87 % 0.0 mm 373 W/m2
08:55 24.2 °C 21.5 °C 1013.8 hPa Calm   4.8 km/h 85 % 0.0 mm 390 W/m2
09:00 24.3 °C 21.6 °C 1013.8 hPa WSW 3.2 km/h 6.4 km/h 85 % 0.0 mm 415 W/m2
09:05 24.4 °C 21.4 °C 1013.8 hPa WSW 1.6 km/h 6.4 km/h 83 % 0.0 mm 434 W/m2
09:10 24.7 °C 21.4 °C 1013.8 hPa WSW 3.2 km/h 4.8 km/h 82 % 0.0 mm 394 W/m2
09:15 24.7 °C 21.0 °C 1013.8 hPa West 3.2 km/h 4.8 km/h 80 % 0.0 mm 454 W/m2
09:20 24.9 °C 21.0 °C 1013.8 hPa Calm   4.8 km/h 79 % 0.0 mm 403 W/m2
09:25 25.1 °C 21.2 °C 1013.8 hPa Calm   4.8 km/h 79 % 0.0 mm 285 W/m2
09:30 25.0 °C 20.9 °C 1013.8 hPa West 4.8 km/h 6.4 km/h 78 % 0.0 mm 352 W/m2
09:35 25.2 °C 21.1 °C 1013.8 hPa WNW 1.6 km/h 6.4 km/h 78 % 0.0 mm 457 W/m2
09:40 25.3 °C 21.2 °C 1013.8 hPa NNW 6.4 km/h 8.0 km/h 78 % 0.0 mm 494 W/m2
09:45 25.5 °C 21.4 °C 1013.8 hPa Calm   8.0 km/h 78 % 0.0 mm 503 W/m2
09:50 25.6 °C 21.1 °C 1013.8 hPa Calm   6.4 km/h 76 % 0.0 mm 520 W/m2
09:55 26.1 °C 21.5 °C 1013.8 hPa WNW 1.6 km/h 6.4 km/h 76 % 0.0 mm 531 W/m2
10:00 26.6 °C 22.0 °C 1013.8 hPa Calm   6.4 km/h 76 % 0.0 mm 548 W/m2
10:05 26.7 °C 21.9 °C 1013.8 hPa NW 1.6 km/h 6.4 km/h 75 % 0.0 mm 561 W/m2
10:15 27.6 °C 21.6 °C 1013.8 hPa NW 4.8 km/h 6.4 km/h 70 % 0.0 mm 592 W/m2
10:20 27.7 °C 22.0 °C 1013.8 hPa WNW 1.6 km/h 6.4 km/h 71 % 0.0 mm 613 W/m2
10:25 27.8 °C 21.9 °C 1013.8 hPa Calm   6.4 km/h 70 % 0.0 mm 519 W/m2
10:30 28.0 °C 22.0 °C 1014.1 hPa WNW 3.2 km/h 4.8 km/h 70 % 0.0 mm 584 W/m2
10:35 28.2 °C 21.8 °C 1014.1 hPa West 3.2 km/h 6.4 km/h 68 % 0.0 mm 647 W/m2
10:40 27.6 °C 21.1 °C 1014.1 hPa WSW 4.8 km/h 6.4 km/h 68 % 0.0 mm 657 W/m2
10:45 27.7 °C 22.0 °C 1014.1 hPa West 4.8 km/h 6.4 km/h 71 % 0.0 mm 621 W/m2
10:50 27.8 °C 21.6 °C 1014.1 hPa WSW 4.8 km/h 6.4 km/h 69 % 0.0 mm 548 W/m2
10:55 26.3 °C 19.5 °C 1014.1 hPa WSW 4.8 km/h 24.1 km/h 66 % 0.0 mm 506 W/m2
11:00 25.2 °C 19.4 °C 1014.4 hPa Calm   24.1 km/h 70 % 0.0 mm 591 W/m2
11:05 25.3 °C 19.9 °C 1014.4 hPa WSW 6.4 km/h 19.3 km/h 72 % 0.0 mm 640 W/m2
11:10 25.8 °C 19.9 °C 1014.4 hPa West 4.8 km/h 12.9 km/h 70 % 0.0 mm 722 W/m2
11:15 26.3 °C 19.4 °C 1014.1 hPa Calm   16.1 km/h 66 % 0.0 mm 605 W/m2
11:20 26.3 °C 19.4 °C 1014.4 hPa Calm   16.1 km/h 66 % 0.0 mm 612 W/m2
11:25 26.3 °C 19.7 °C 1014.4 hPa WSW 12.9 km/h 14.5 km/h 67 % 0.0 mm 608 W/m2
11:30 25.4 °C 18.8 °C 1014.4 hPa WSW 8.0 km/h 19.3 km/h 67 % 0.0 mm 585 W/m2
11:35 25.2 °C 19.1 °C 1014.4 hPa WSW 3.2 km/h 19.3 km/h 69 % 0.0 mm 814 W/m2
11:40 26.4 °C 19.5 °C 1014.4 hPa West 4.8 km/h 12.9 km/h 66 % 0.0 mm 631 W/m2
11:45 26.2 °C 19.3 °C 1014.8 hPa SSW 4.8 km/h 12.9 km/h 66 % 0.0 mm 524 W/m2
11:50 25.3 °C 18.9 °C 1014.8 hPa West 8.0 km/h 17.7 km/h 68 % 0.0 mm 469 W/m2
11:55 24.8 °C 19.2 °C 1014.8 hPa SW 4.8 km/h 17.7 km/h 71 % 0.0 mm 577 W/m2
12:00 24.9 °C 19.0 °C 1014.8 hPa WSW 4.8 km/h 17.7 km/h 70 % 0.0 mm 552 W/m2
12:05 25.2 °C 19.1 °C 1014.8 hPa West 8.0 km/h 17.7 km/h 69 % 0.0 mm 559 W/m2
12:10 24.9 °C 18.8 °C 1014.8 hPa WSW 6.4 km/h 25.7 km/h 69 % 0.0 mm 703 W/m2
12:20 25.4 °C 18.9 °C 1014.8 hPa WSW 8.0 km/h 17.7 km/h 67 % 0.0 mm 712 W/m2
12:25 25.3 °C 19.0 °C 1014.8 hPa West 8.0 km/h 17.7 km/h 68 % 0.0 mm 708 W/m2
12:30 25.6 °C 19.0 °C 1014.8 hPa SW 12.9 km/h 14.5 km/h 67 % 0.0 mm 745 W/m2
12:35 25.8 °C 19.7 °C 1015.1 hPa WSW 6.4 km/h 16.1 km/h 69 % 0.0 mm 663 W/m2
12:40 25.3 °C 19.0 °C 1015.1 hPa WSW 11.3 km/h 17.7 km/h 68 % 0.0 mm 626 W/m2
12:45 25.7 °C 19.8 °C 1015.1 hPa WNW 8.0 km/h 17.7 km/h 70 % 0.0 mm 780 W/m2
12:50 25.7 °C 19.6 °C 1015.1 hPa WSW 12.9 km/h 14.5 km/h 69 % 0.0 mm 837 W/m2
12:55 25.8 °C 19.2 °C 1015.1 hPa West 8.0 km/h 16.1 km/h 67 % 0.0 mm 784 W/m2
13:00 25.7 °C 19.1 °C 1015.1 hPa SW 16.1 km/h 16.1 km/h 67 % 0.0 mm 786 W/m2
13:05 25.6 °C 19.5 °C 1015.1 hPa West 6.4 km/h 17.7 km/h 69 % 0.0 mm 800 W/m2
13:10 26.3 °C 18.9 °C 1015.1 hPa West 9.7 km/h 17.7 km/h 64 % 0.0 mm 835 W/m2
13:15 25.8 °C 19.4 °C 1015.1 hPa WSW 9.7 km/h 17.7 km/h 68 % 0.0 mm 830 W/m2
13:20 25.4 °C 19.3 °C 1015.1 hPa West 8.0 km/h 17.7 km/h 69 % 0.0 mm 847 W/m2
13:25 25.9 °C 20.3 °C 1015.1 hPa WNW 9.7 km/h 14.5 km/h 71 % 0.0 mm 800 W/m2
13:30 26.5 °C 19.4 °C 1015.1 hPa WSW 11.3 km/h 17.7 km/h 65 % 0.0 mm 805 W/m2
13:35 26.4 °C 20.1 °C 1015.1 hPa Calm   17.7 km/h 68 % 0.0 mm 838 W/m2
13:40 26.8 °C 19.7 °C 1014.8 hPa WSW 4.8 km/h 12.9 km/h 65 % 0.0 mm 861 W/m2
13:45 27.0 °C 19.6 °C 1014.8 hPa West 4.8 km/h 11.3 km/h 64 % 0.0 mm 860 W/m2
13:50 27.1 °C 19.9 °C 1015.1 hPa SW 3.2 km/h 11.3 km/h 65 % 0.0 mm 874 W/m2
13:55 27.2 °C 19.5 °C 1014.8 hPa West 1.6 km/h 11.3 km/h 63 % 0.0 mm 900 W/m2
14:00 27.6 °C 19.4 °C 1014.8 hPa WNW 6.4 km/h 12.9 km/h 61 % 0.0 mm 863 W/m2
14:05 27.1 °C 18.9 °C 1014.8 hPa SSW 8.0 km/h 16.1 km/h 61 % 0.0 mm 828 W/m2
14:10 27.1 °C 19.9 °C 1014.8 hPa Calm   16.1 km/h 65 % 0.0 mm 904 W/m2
14:15 27.6 °C 19.6 °C 1014.8 hPa SSW 3.2 km/h 12.9 km/h 62 % 0.0 mm 835 W/m2
14:20 28.2 °C 20.5 °C 1014.8 hPa Calm   12.9 km/h 63 % 0.0 mm 884 W/m2
14:25 28.1 °C 19.3 °C 1014.8 hPa WSW 3.2 km/h 14.5 km/h 59 % 0.0 mm 853 W/m2
14:30 27.9 °C 19.7 °C 1014.8 hPa SW 4.8 km/h 14.5 km/h 61 % 0.0 mm 791 W/m2
14:35 27.7 °C 19.5 °C 1014.8 hPa SW 8.0 km/h 11.3 km/h 61 % 0.0 mm 853 W/m2
14:40 27.5 °C 19.3 °C 1014.8 hPa SW 9.7 km/h 14.5 km/h 61 % 0.0 mm 860 W/m2
14:45 27.5 °C 19.6 °C 1014.8 hPa WNW 4.8 km/h 14.5 km/h 62 % 0.0 mm 861 W/m2
14:50 27.0 °C 19.6 °C 1014.8 hPa West 11.3 km/h 19.3 km/h 64 % 0.0 mm 847 W/m2
14:55 26.7 °C 20.0 °C 1014.8 hPa WNW 8.0 km/h 19.3 km/h 67 % 0.0 mm 838 W/m2
15:00 26.8 °C 20.2 °C 1014.8 hPa WNW 9.7 km/h 19.3 km/h 67 % 0.0 mm 837 W/m2
15:05 26.6 °C 19.4 °C 1015.1 hPa West 4.8 km/h 19.3 km/h 65 % 0.0 mm 831 W/m2
15:10 26.3 °C 19.7 °C 1014.8 hPa West 8.0 km/h 17.7 km/h 67 % 0.0 mm 826 W/m2
15:15 26.1 °C 19.7 °C 1014.8 hPa WSW 11.3 km/h 17.7 km/h 68 % 0.0 mm 823 W/m2
15:20 25.9 °C 20.0 °C 1014.8 hPa WNW 8.0 km/h 17.7 km/h 70 % 0.0 mm 823 W/m2
15:25 26.4 °C 20.0 °C 1014.8 hPa West 12.9 km/h 16.1 km/h 68 % 0.0 mm 812 W/m2
15:30 26.2 °C 20.0 °C 1014.8 hPa WSW 4.8 km/h 16.1 km/h 69 % 0.0 mm 800 W/m2
15:35 26.3 °C 20.0 °C 1014.8 hPa WSW 12.9 km/h 16.1 km/h 68 % 0.0 mm 788 W/m2
15:40 26.4 °C 21.0 °C 1014.8 hPa SW 8.0 km/h 16.1 km/h 72 % 0.0 mm 791 W/m2
15:45 26.6 °C 20.0 °C 1014.8 hPa WSW 6.4 km/h 16.1 km/h 67 % 0.0 mm 786 W/m2
15:50 26.3 °C 20.2 °C 1014.8 hPa WNW 1.6 km/h 14.5 km/h 69 % 0.0 mm 779 W/m2
15:55 26.8 °C 20.7 °C 1014.8 hPa West 16.1 km/h 16.1 km/h 69 % 0.0 mm 768 W/m2
16:00 26.4 °C 20.5 °C 1014.8 hPa West 6.4 km/h 16.1 km/h 70 % 0.0 mm 765 W/m2
16:05 26.8 °C 20.6 °C 1014.8 hPa West 9.7 km/h 16.1 km/h 69 % 0.0 mm 759 W/m2
16:10 27.1 °C 21.3 °C 1014.8 hPa SSW 9.7 km/h 14.5 km/h 71 % 0.0 mm 747 W/m2
16:15 26.8 °C 20.4 °C 1014.8 hPa West 8.0 km/h 12.9 km/h 68 % 0.0 mm 740 W/m2
16:20 26.1 °C 20.2 °C 1014.8 hPa WNW 6.4 km/h 19.3 km/h 70 % 0.0 mm 726 W/m2
16:25 26.2 °C 20.5 °C 1014.8 hPa West 3.2 km/h 19.3 km/h 71 % 0.0 mm 712 W/m2
16:30 26.0 °C 20.8 °C 1014.4 hPa WSW 11.3 km/h 16.1 km/h 73 % 0.0 mm 671 W/m2
16:35 25.7 °C 20.2 °C 1014.8 hPa WSW 12.9 km/h 17.7 km/h 72 % 0.0 mm 650 W/m2
16:40 25.2 °C 20.3 °C 1014.4 hPa SW 8.0 km/h 17.7 km/h 74 % 0.0 mm 626 W/m2
16:45 25.5 °C 20.5 °C 1014.4 hPa WSW 14.5 km/h 16.1 km/h 74 % 0.0 mm 708 W/m2
16:50 25.7 °C 20.7 °C 1014.4 hPa WSW 8.0 km/h 16.1 km/h 74 % 0.0 mm 712 W/m2
16:55 25.5 °C 20.5 °C 1014.4 hPa WSW 9.7 km/h 17.7 km/h 74 % 0.0 mm 628 W/m2
17:00 25.5 °C 20.1 °C 1014.4 hPa West 4.8 km/h 17.7 km/h 72 % 0.0 mm 619 W/m2
17:05 25.7 °C 20.5 °C 1014.4 hPa WSW 3.2 km/h 16.1 km/h 73 % 0.0 mm 575 W/m2
17:10 25.3 °C 20.5 °C 1014.4 hPa SW 8.0 km/h 17.7 km/h 75 % 0.0 mm 629 W/m2
17:15 25.0 °C 20.5 °C 1014.4 hPa NW 6.4 km/h 19.3 km/h 76 % 0.0 mm 615 W/m2
17:20 25.3 °C 21.0 °C 1014.4 hPa WNW 6.4 km/h 19.3 km/h 77 % 0.0 mm 615 W/m2
17:25 25.5 °C 20.5 °C 1014.4 hPa West 11.3 km/h 16.1 km/h 74 % 0.0 mm 585 W/m2
17:30 25.2 °C 20.5 °C 1014.4 hPa WSW 8.0 km/h 14.5 km/h 75 % 0.0 mm 582 W/m2
17:35 25.1 °C 20.7 °C 1014.1 hPa WSW 9.7 km/h 16.1 km/h 77 % 0.0 mm 504 W/m2
17:45 24.6 °C 20.5 °C 1014.1 hPa WSW 9.7 km/h 16.1 km/h 78 % 0.0 mm 462 W/m2
17:50 24.7 °C 21.0 °C 1014.1 hPa WSW 4.8 km/h 16.1 km/h 80 % 0.0 mm 515 W/m2
17:55 24.8 °C 20.9 °C 1014.1 hPa SW 6.4 km/h 14.5 km/h 79 % 0.0 mm 504 W/m2
18:00 24.9 °C 20.8 °C 1014.1 hPa NW 4.8 km/h 14.5 km/h 78 % 0.0 mm 446 W/m2
18:05 24.7 °C 20.8 °C 1014.1 hPa SSW 1.6 km/h 12.9 km/h 79 % 0.0 mm 476 W/m2
18:10 24.8 °C 21.1 °C 1014.1 hPa WNW 6.4 km/h 12.9 km/h 80 % 0.0 mm 522 W/m2
18:15 24.7 °C 20.8 °C 1013.8 hPa WSW 4.8 km/h 14.5 km/h 79 % 0.0 mm 501 W/m2
18:20 24.9 °C 21.2 °C 1014.1 hPa SW 6.4 km/h 14.5 km/h 80 % 0.0 mm 485 W/m2
18:25 24.7 °C 21.4 °C 1014.1 hPa WSW 6.4 km/h 14.5 km/h 82 % 0.0 mm 471 W/m2
18:30 24.8 °C 21.3 °C 1014.1 hPa WSW 8.0 km/h 14.5 km/h 81 % 0.0 mm 448 W/m2
18:35 24.4 °C 21.4 °C 1014.1 hPa NW 8.0 km/h 14.5 km/h 83 % 0.0 mm 438 W/m2
18:40 24.3 °C 21.3 °C 1014.1 hPa SW 12.9 km/h 14.5 km/h 83 % 0.0 mm 424 W/m2
18:45 24.1 °C 21.0 °C 1014.1 hPa WSW 6.4 km/h 17.7 km/h 83 % 0.0 mm 394 W/m2
18:50 24.1 °C 21.2 °C 1014.1 hPa West 6.4 km/h 17.7 km/h 84 % 0.0 mm 348 W/m2
18:55 23.6 °C 20.9 °C 1014.1 hPa West 11.3 km/h 19.3 km/h 85 % 0.0 mm 385 W/m2
19:00 23.6 °C 21.1 °C 1014.1 hPa WSW 8.0 km/h 19.3 km/h 86 % 0.0 mm 348 W/m2
19:05 23.6 °C 21.1 °C 1014.1 hPa WSW 6.4 km/h 19.3 km/h 86 % 0.0 mm 339 W/m2
19:10 23.4 °C 21.0 °C 1014.1 hPa WSW 6.4 km/h 16.1 km/h 86 % 0.0 mm 332 W/m2
19:15 23.3 °C 20.8 °C 1014.1 hPa West 8.0 km/h 16.1 km/h 86 % 0.0 mm 318 W/m2
19:20 23.2 °C 20.9 °C 1014.1 hPa WNW 4.8 km/h 16.1 km/h 87 % 0.0 mm 304 W/m2
19:25 23.1 °C 20.8 °C 1014.1 hPa West 9.7 km/h 17.7 km/h 87 % 0.0 mm 299 W/m2
19:30 22.9 °C 20.7 °C 1014.1 hPa WSW 8.0 km/h 17.7 km/h 87 % 0.0 mm 299 W/m2
19:35 22.8 °C 20.6 °C 1014.1 hPa WSW 11.3 km/h 14.5 km/h 87 % 0.0 mm 167 W/m2
19:40 22.5 °C 20.6 °C 1014.1 hPa WSW 8.0 km/h 17.7 km/h 89 % 0.0 mm 146 W/m2
19:45 22.5 °C 20.6 °C 1014.1 hPa WNW 8.0 km/h 17.7 km/h 89 % 0.0 mm 130 W/m2
19:50 22.3 °C 20.4 °C 1014.4 hPa SW 3.2 km/h 14.5 km/h 89 % 0.0 mm 114 W/m2
19:55 21.9 °C 20.0 °C 1014.1 hPa WSW 4.8 km/h 12.9 km/h 89 % 0.0 mm 113 W/m2
20:00 21.7 °C 20.0 °C 1014.1 hPa WSW 11.3 km/h 11.3 km/h 90 % 0.0 mm 86 W/m2
20:05 21.2 °C 19.7 °C 1014.1 hPa WSW 9.7 km/h 14.5 km/h 91 % 0.0 mm 91 W/m2
20:10 21.1 °C 19.7 °C 1014.1 hPa WSW 8.0 km/h 14.5 km/h 92 % 0.0 mm 88 W/m2
20:15 20.9 °C 19.8 °C 1014.1 hPa WSW 6.4 km/h 12.9 km/h 93 % 0.0 mm 74 W/m2
20:20 20.8 °C 19.8 °C 1014.1 hPa West 1.6 km/h 11.3 km/h 94 % 0.0 mm 63 W/m2
20:25 20.7 °C 19.7 °C 1014.1 hPa SW 3.2 km/h 11.3 km/h 94 % 0.0 mm 54 W/m2
20:35 20.4 °C 19.6 °C 1014.1 hPa WSW 4.8 km/h 9.7 km/h 95 % 0.0 mm 62 W/m2
20:40 20.4 °C 19.6 °C 1014.1 hPa Calm   8.0 km/h 95 % 0.0 mm 58 W/m2
20:45 20.4 °C 19.6 °C 1014.1 hPa Calm   6.4 km/h 95 % 0.0 mm 56 W/m2
20:50 20.3 °C 19.5 °C 1014.1 hPa WSW 3.2 km/h 11.3 km/h 95 % 0.0 mm 42 W/m2
20:55 20.2 °C 19.3 °C 1014.1 hPa WSW 4.8 km/h 11.3 km/h 95 % 0.0 mm 40 W/m2
21:00 20.1 °C 19.5 °C 1014.4 hPa WSW 1.6 km/h 8.0 km/h 96 % 0.0 mm 37 W/m2
21:05 20.0 °C 19.2 °C 1014.4 hPa WSW 8.0 km/h 8.0 km/h 95 % 0.0 mm 30 W/m2
21:10 19.9 °C 19.3 °C 1014.4 hPa West 8.0 km/h 8.0 km/h 96 % 0.0 mm 25 W/m2
21:15 19.8 °C 19.2 °C 1014.4 hPa West 4.8 km/h 9.7 km/h 96 % 0.0 mm 21 W/m2
21:20 19.7 °C 19.0 °C 1014.4 hPa WSW 4.8 km/h 9.7 km/h 96 % 0.0 mm 23 W/m2
21:25 19.4 °C 18.8 °C 1014.4 hPa SW 3.2 km/h 14.5 km/h 96 % 0.0 mm 19 W/m2
21:30 19.4 °C 18.7 °C 1014.4 hPa Calm   14.5 km/h 96 % 0.0 mm 18 W/m2
21:35 19.3 °C 18.7 °C 1014.4 hPa WSW 3.2 km/h 12.9 km/h 96 % 0.0 mm 12 W/m2
21:40 19.4 °C 18.7 °C 1014.4 hPa WNW 3.2 km/h 9.7 km/h 96 % 0.0 mm 11 W/m2
21:45 19.3 °C 18.8 °C 1014.4 hPa West 3.2 km/h 9.7 km/h 97 % 0.0 mm 9 W/m2
21:50 19.3 °C 18.8 °C 1014.4 hPa West 4.8 km/h 11.3 km/h 97 % 0.0 mm 5 W/m2
21:55 19.3 °C 18.8 °C 1014.4 hPa West 8.0 km/h 12.9 km/h 97 % 0.0 mm 0 W/m2
22:00 19.3 °C 18.8 °C 1014.4 hPa Calm   12.9 km/h 97 % 0.0 mm 0 W/m2
22:05 19.3 °C 18.8 °C 1014.4 hPa WSW 6.4 km/h 9.7 km/h 97 % 0.0 mm 0 W/m2
22:10 19.2 °C 18.7 °C 1014.4 hPa Calm   9.7 km/h 97 % 0.0 mm 0 W/m2
22:15 19.3 °C 18.8 °C 1014.4 hPa SW 1.6 km/h 9.7 km/h 97 % 0.0 mm 0 W/m2
22:20 19.2 °C 18.7 °C 1014.4 hPa Calm   12.9 km/h 97 % 0.0 mm 0 W/m2
22:25 19.1 °C 18.6 °C 1014.4 hPa Calm   12.9 km/h 97 % 0.0 mm 0 W/m2
22:30 19.2 °C 18.7 °C 1014.8 hPa WSW 6.4 km/h 11.3 km/h 97 % 0.0 mm 0 W/m2
22:35 19.1 °C 18.6 °C 1014.8 hPa SW 8.0 km/h 11.3 km/h 97 % 0.0 mm 0 W/m2
22:40 19.0 °C 18.5 °C 1014.8 hPa West 3.2 km/h 11.3 km/h 97 % 0.0 mm 0 W/m2
22:45 19.0 °C 18.5 °C 1014.8 hPa WSW 4.8 km/h 11.3 km/h 97 % 0.0 mm 0 W/m2
22:50 19.0 °C 18.5 °C 1014.8 hPa WSW 3.2 km/h 6.4 km/h 97 % 0.0 mm 0 W/m2
22:55 19.0 °C 18.5 °C 1014.8 hPa WSW 1.6 km/h 8.0 km/h 97 % 0.0 mm 0 W/m2
23:00 19.1 °C 18.6 °C 1014.8 hPa Calm   8.0 km/h 97 % 0.0 mm 0 W/m2
23:05 18.9 °C 18.4 °C 1014.8 hPa WNW 3.2 km/h 9.7 km/h 97 % 0.0 mm 0 W/m2
23:10 18.8 °C 18.3 °C 1014.8 hPa WSW 4.8 km/h 9.7 km/h 97 % 0.0 mm 0 W/m2
23:15 18.8 °C 18.3 °C 1014.8 hPa West 4.8 km/h 9.7 km/h 97 % 0.0 mm 0 W/m2
23:20 18.8 °C 18.3 °C 1014.8 hPa WSW 6.4 km/h 11.3 km/h 97 % 0.0 mm 0 W/m2
23:25 18.8 °C 18.3 °C 1014.8 hPa SSW 3.2 km/h 11.3 km/h 97 % 0.0 mm 0 W/m2
23:30 18.8 °C 18.3 °C 1014.8 hPa Calm   11.3 km/h 97 % 0.0 mm 0 W/m2
23:35 18.8 °C 18.3 °C 1014.8 hPa WSW 4.8 km/h 9.7 km/h 97 % 0.0 mm 0 W/m2
23:40 18.8 °C 18.3 °C 1014.8 hPa Calm   8.0 km/h 97 % 0.0 mm 0 W/m2
23:45 18.8 °C 18.3 °C 1014.8 hPa Calm   8.0 km/h 97 % 0.0 mm 0 W/m2
23:50 18.6 °C 18.1 °C 1014.8 hPa Calm   9.7 km/h 97 % 0.0 mm 0 W/m2
23:55 18.6 °C 18.1 °C 1014.8 hPa Calm   9.7 km/h 97 % 0.0 mm 0 W/m2
Avec l'autorisation de Weather Underground - 1.75 mb